Time;durP1;ratioP1;P1;durP2;ratioP2;P2;SDS_P1;SDS_P2;PMS_P1;PMS_P2;Temp;Humidity;BMP_temperature;BMP_pressure;BME280_temperature;BME280_humidity;BME280_pressure;Samples;Min_cycle;Max_cycle;Signal;HPM_P1;HPM_P2
2022/07/06 00:01:57;;;;;;;3.28;1.95;;;;;;;17.96;59.28;96660.00;4899019;29;20072;-80
2022/07/06 00:04:23;;;;;;;2.92;1.27;;;;;;;17.91;59.34;96668.53;4896600;29;20041;-80
2022/07/06 00:06:50;;;;;;;3.00;1.35;;;;;;;17.95;61.11;96666.66;4898204;29;20049;-79
2022/07/06 00:09:17;;;;;;;3.55;1.60;;;;;;;17.93;61.66;96665.41;4888335;29;20072;-81
2022/07/06 00:11:45;;;;;;;2.63;1.70;;;;;;;17.89;57.60;96659.03;4879314;29;20449;-80
2022/07/06 00:14:11;;;;;;;3.45;1.30;;;;;;;17.80;56.43;96670.25;4877844;29;20517;-80
2022/07/06 00:16:37;;;;;;;4.03;1.73;;;;;;;17.71;55.96;96669.59;4878674;29;20446;-80
2022/07/06 00:19:04;;;;;;;3.50;1.60;;;;;;;17.75;56.83;96676.03;4878396;29;20057;-82
2022/07/06 00:21:31;;;;;;;2.35;1.60;;;;;;;17.68;54.89;96675.81;4877463;29;20401;-82
2022/07/06 00:23:58;;;;;;;2.97;1.25;;;;;;;17.78;57.75;96675.31;4878869;29;20046;-80
2022/07/06 00:26:25;;;;;;;3.20;1.30;;;;;;;17.68;54.82;96681.31;4895735;29;20051;-80
2022/07/06 00:28:53;;;;;;;4.13;1.58;;;;;;;17.51;55.10;96681.69;4897731;29;20053;-80
2022/07/06 00:31:19;;;;;;;4.30;1.65;;;;;;;17.46;55.40;96672.53;4896704;29;20048;-79
2022/07/06 00:33:46;;;;;;;3.78;1.58;;;;;;;17.26;54.77;96681.81;4897346;29;20060;-80
2022/07/06 00:36:12;;;;;;;4.22;1.70;;;;;;;17.29;54.40;96681.13;4896929;29;20524;-79
2022/07/06 00:38:39;;;;;;;5.78;1.50;;;;;;;17.11;55.72;96686.16;4897007;29;20417;-83
2022/07/06 00:41:05;;;;;;;3.05;1.70;;;;;;;17.22;55.12;96678.19;4894483;29;20056;-80
2022/07/06 00:43:49;;;;;;;4.90;1.50;;;;;;;17.39;55.19;96675.09;4903842;29;20071;-80
2022/07/06 00:46:17;;;;;;;3.05;1.38;;;;;;;17.29;55.02;96678.38;4896468;29;20155;-81
2022/07/06 00:48:44;;;;;;;2.97;1.70;;;;;;;17.05;55.91;96678.50;4896423;29;20056;-81
2022/07/06 00:51:11;;;;;;;3.25;1.40;;;;;;;17.13;55.70;96674.81;4896361;29;20044;-80
2022/07/06 00:53:38;;;;;;;1.98;1.40;;;;;;;17.35;56.79;96682.47;4897888;29;20059;-80
2022/07/06 00:56:05;;;;;;;3.28;1.40;;;;;;;17.46;56.19;96677.22;4896466;29;20059;-82
2022/07/06 00:58:31;;;;;;;4.88;1.45;;;;;;;17.56;55.52;96673.16;4898156;29;20059;-81
2022/07/06 01:00:58;;;;;;;3.20;1.60;;;;;;;17.19;55.29;96673.41;4897033;29;20051;-81
2022/07/06 01:03:26;;;;;;;3.60;1.65;;;;;;;17.17;55.68;96671.00;4896949;29;20059;-80
2022/07/06 01:05:52;;;;;;;6.13;1.75;;;;;;;17.28;55.92;96668.53;4897073;29;20056;-81
2022/07/06 01:08:19;;;;;;;4.63;1.75;;;;;;;17.07;56.92;96662.44;4895375;29;20055;-80
2022/07/06 01:10:48;;;;;;;3.35;1.70;;;;;;;17.17;57.47;96664.66;4896001;29;20048;-82
2022/07/06 01:13:15;;;;;;;2.83;1.65;;;;;;;17.13;57.74;96666.56;4895296;29;20568;-81
2022/07/06 01:15:41;;;;;;;5.70;1.67;;;;;;;17.17;57.62;96671.00;4895703;29;20055;-81
2022/07/06 01:18:10;;;;;;;6.82;2.03;;;;;;;17.28;57.81;96662.19;4895399;29;20427;-80
2022/07/06 01:20:38;;;;;;;3.67;1.73;;;;;;;17.22;58.71;96662.47;4895380;29;20412;-80
2022/07/06 01:23:04;;;;;;;3.30;1.67;;;;;;;17.24;59.41;96658.56;4895116;29;20044;-80
2022/07/06 01:25:32;;;;;;;2.95;1.40;;;;;;;17.34;59.02;96664.34;4894779;29;20068;-80
2022/07/06 01:27:58;;;;;;;3.78;1.70;;;;;;;17.39;59.58;96658.59;4895182;29;20048;-81
2022/07/06 01:30:25;;;;;;;4.15;1.70;;;;;;;17.30;59.39;96660.72;4894349;29;20606;-80
2022/07/06 01:32:52;;;;;;;4.03;1.67;;;;;;;17.12;60.60;96660.25;4896075;29;20509;-81
2022/07/06 01:35:18;;;;;;;3.50;1.95;;;;;;;16.99;61.13;96655.16;4900835;29;20052;-81
2022/07/06 01:37:46;;;;;;;3.58;1.98;;;;;;;16.97;60.98;96662.97;4896428;29;20041;-82
2022/07/06 01:40:13;;;;;;;4.30;1.85;;;;;;;16.79;61.83;96663.28;4896269;29;20531;-80
2022/07/06 01:42:40;;;;;;;5.18;1.83;;;;;;;16.90;61.83;96658.06;4896649;29;20052;-80
2022/07/06 01:45:08;;;;;;;2.92;1.90;;;;;;;17.02;62.32;96655.25;4896008;29;20052;-81
2022/07/06 01:47:34;;;;;;;2.20;1.70;;;;;;;17.14;63.04;96657.13;4897796;29;20056;-81
2022/07/06 01:50:02;;;;;;;3.08;1.60;;;;;;;17.18;62.90;96660.78;4899850;29;20068;-80
2022/07/06 01:52:28;;;;;;;3.72;1.92;;;;;;;17.19;63.17;96654.94;4901443;29;20037;-81
2022/07/06 01:54:57;;;;;;;3.33;1.85;;;;;;;17.21;62.88;96662.81;4901629;29;20386;-80
2022/07/06 01:57:23;;;;;;;8.15;2.63;;;;;;;16.84;63.03;96660.25;4900092;29;20056;-81
2022/07/06 01:59:52;;;;;;;4.22;2.03;;;;;;;16.92;62.82;96651.06;4901001;29;20051;-81
2022/07/06 02:02:19;;;;;;;2.90;1.98;;;;;;;17.03;63.66;96662.38;4901459;29;20620;-81
2022/07/06 02:04:45;;;;;;;5.40;2.63;;;;;;;17.05;63.16;96659.25;4902175;29;20049;-81
2022/07/06 02:07:11;;;;;;;4.70;2.40;;;;;;;17.04;63.08;96663.97;4900385;29;20052;-80
2022/07/06 02:09:38;;;;;;;5.15;2.33;;;;;;;16.71;63.85;96656.00;4900184;29;20056;-80
2022/07/06 02:12:06;;;;;;;5.13;2.28;;;;;;;16.59;64.72;96665.03;4899254;29;20052;-81
2022/07/06 02:14:33;;;;;;;3.05;2.05;;;;;;;16.48;64.71;96663.13;4899733;29;20048;-81
2022/07/06 02:16:59;;;;;;;5.22;2.38;;;;;;;16.48;65.06;96657.63;4900312;29;20074;-80
2022/07/06 02:19:26;;;;;;;4.60;1.95;;;;;;;16.64;64.92;96656.53;4897680;29;20044;-81
2022/07/06 02:21:52;;;;;;;6.47;2.38;;;;;;;16.71;64.98;96672.47;4900149;29;20055;-80
2022/07/06 02:24:19;;;;;;;4.65;2.40;;;;;;;16.74;66.21;96663.53;4898758;29;20073;-80
2022/07/06 02:26:45;;;;;;;8.40;2.30;;;;;;;16.68;64.71;96673.94;4899895;29;20044;-80
2022/07/06 02:29:13;;;;;;;5.85;2.72;;;;;;;16.42;65.07;96670.81;4899281;29;20541;-80
2022/07/06 02:31:40;;;;;;;3.35;2.55;;;;;;;16.32;65.23;96666.59;4899418;29;20123;-79
2022/07/06 02:34:06;;;;;;;3.80;2.60;;;;;;;16.32;65.49;96671.31;4899171;29;20053;-80
2022/07/06 02:36:33;;;;;;;3.55;2.40;;;;;;;16.38;66.00;96681.69;4899608;29;20049;-81
2022/07/06 02:39:00;;;;;;;5.35;2.55;;;;;;;16.34;65.80;96680.81;4899465;29;20632;-79
2022/07/06 02:41:30;;;;;;;4.30;2.80;;;;;;;16.34;66.11;96685.50;4899558;29;20052;-80
2022/07/06 02:43:56;;;;;;;4.32;2.72;;;;;;;16.34;66.12;96686.31;4900206;29;20105;-80
2022/07/06 02:46:24;;;;;;;2.67;2.25;;;;;;;16.42;66.11;96684.56;4899451;29;20055;-80
2022/07/06 02:48:51;;;;;;;4.32;2.65;;;;;;;16.07;68.50;96687.03;4899425;29;20052;-80
2022/07/06 02:51:17;;;;;;;6.47;3.25;;;;;;;15.91;69.53;96684.19;4899037;29;20059;-81
2022/07/06 02:53:44;;;;;;;3.50;2.40;;;;;;;16.00;69.25;96692.31;4901317;29;20138;-80
2022/07/06 02:56:10;;;;;;;5.68;3.45;;;;;;;15.98;69.49;96692.66;4885479;29;20045;-81
2022/07/06 02:58:37;;;;;;;6.95;2.47;;;;;;;15.85;70.38;96688.31;4882755;29;20064;-80
2022/07/06 03:01:03;;;;;;;4.40;2.53;;;;;;;15.73;71.13;96683.63;4881788;29;20053;-81
2022/07/06 03:03:32;;;;;;;3.28;2.30;;;;;;;15.88;70.58;96685.69;4881881;29;20049;-81
2022/07/06 03:05:59;;;;;;;6.22;2.58;;;;;;;15.90;71.08;96694.38;4883591;29;20494;-82
2022/07/06 03:08:25;;;;;;;4.40;2.60;;;;;;;16.07;70.11;96695.28;4881850;29;20104;-83
2022/07/06 03:10:52;;;;;;;5.60;2.85;;;;;;;16.07;70.34;96696.06;4883386;29;20252;-82
2022/07/06 03:13:19;;;;;;;4.30;2.45;;;;;;;16.01;70.83;96700.19;4882633;29;20056;-82
2022/07/06 03:15:45;;;;;;;5.20;2.58;;;;;;;16.03;71.27;96702.63;4882865;29;20053;-82
2022/07/06 03:18:11;;;;;;;3.40;2.47;;;;;;;15.95;71.66;96695.28;4882784;29;20081;-82
2022/07/06 03:20:39;;;;;;;3.83;2.40;;;;;;;16.03;71.38;96714.41;4883493;29;20045;-82
2022/07/06 03:23:06;;;;;;;3.58;2.28;;;;;;;16.10;72.08;96708.31;4882682;29;20055;-81
2022/07/06 03:25:33;;;;;;;4.80;2.28;;;;;;;16.09;71.85;96712.22;4881971;29;20055;-81
2022/07/06 03:27:59;;;;;;;8.02;2.83;;;;;;;16.00;72.17;96711.53;4882053;29;20062;-81
2022/07/06 03:30:26;;;;;;;6.47;2.60;;;;;;;15.99;72.31;96707.19;4880994;29;20049;-81
2022/07/06 03:32:52;;;;;;;5.20;2.47;;;;;;;15.98;72.36;96711.88;4881502;29;20068;-81
2022/07/06 03:35:19;;;;;;;3.17;2.17;;;;;;;15.99;72.52;96712.69;4880395;29;20060;-80
2022/07/06 03:37:47;;;;;;;6.25;2.30;;;;;;;16.04;72.79;96709.72;4880025;29;20049;-81
2022/07/06 03:40:13;;;;;;;6.32;2.58;;;;;;;15.96;73.47;96703.19;4879855;29;20052;-82
2022/07/06 03:42:40;;;;;;;6.93;2.45;;;;;;;16.10;73.71;96702.84;4881382;29;20041;-80
2022/07/06 03:45:08;;;;;;;4.18;2.45;;;;;;;16.15;73.59;96699.84;4879834;29;20049;-81
2022/07/06 03:47:34;;;;;;;4.18;2.40;;;;;;;16.19;73.38;96700.75;4881406;29;20080;-81
2022/07/06 03:50:00;;;;;;;5.50;2.13;;;;;;;16.20;73.56;96696.88;4881716;29;20048;-81
2022/07/06 03:52:27;;;;;;;3.72;2.58;;;;;;;16.15;73.69;96694.34;4880529;29;20056;-81
2022/07/06 03:54:56;;;;;;;3.95;2.28;;;;;;;16.21;73.62;96700.41;4886136;29;20449;-80
2022/07/06 03:57:23;;;;;;;3.63;2.45;;;;;;;16.27;73.85;96701.78;4899252;29;20048;-80
2022/07/06 03:59:49;;;;;;;6.57;2.40;;;;;;;16.26;73.66;96695.47;4898611;29;20044;-81
2022/07/06 04:02:16;;;;;;;4.07;2.40;;;;;;;16.24;73.76;96699.72;4898950;29;20052;-81
2022/07/06 04:04:42;;;;;;;3.88;2.35;;;;;;;16.29;73.90;96702.25;4899303;29;20052;-83
2022/07/06 04:07:09;;;;;;;4.68;2.10;;;;;;;16.34;73.79;96701.97;4898896;29;20057;-81
2022/07/06 04:09:35;;;;;;;3.50;2.33;;;;;;;16.38;74.36;96697.41;4899620;29;20049;-81
2022/07/06 04:12:04;;;;;;;2.75;2.20;;;;;;;16.37;73.75;96707.59;4897801;29;20052;-79
2022/07/06 04:14:30;;;;;;;3.70;2.35;;;;;;;16.33;73.78;96712.16;4889351;29;20260;-82
2022/07/06 04:16:56;;;;;;;3.67;2.50;;;;;;;16.27;73.69;96708.06;4896118;29;20542;-82
2022/07/06 04:19:23;;;;;;;3.58;2.10;;;;;;;16.25;73.71;96707.63;4898549;29;20047;-81
2022/07/06 04:21:49;;;;;;;3.40;2.35;;;;;;;16.32;73.88;96716.06;4898649;29;20072;-79
2022/07/06 04:24:16;;;;;;;3.58;2.33;;;;;;;16.13;74.43;96713.94;4897026;29;20060;-81
2022/07/06 04:26:42;;;;;;;7.55;2.30;;;;;;;16.25;74.18;96715.88;4879529;29;20048;-81
2022/07/06 04:29:10;;;;;;;6.35;2.72;;;;;;;16.30;74.44;96723.88;4878521;29;20458;-80
2022/07/06 04:31:36;;;;;;;4.63;2.40;;;;;;;16.34;74.88;96718.47;4879905;29;20056;-81
2022/07/06 04:34:03;;;;;;;6.15;2.47;;;;;;;16.39;74.41;96721.81;4879811;29;20045;-80
2022/07/06 04:36:29;;;;;;;3.70;2.30;;;;;;;16.32;74.39;96726.25;4879532;29;20049;-81
2022/07/06 04:38:56;;;;;;;4.50;2.50;;;;;;;16.11;75.96;96726.41;4879577;29;20397;-81
2022/07/06 04:41:22;;;;;;;5.30;2.70;;;;;;;15.94;77.53;96721.94;4878581;29;20314;-80
2022/07/06 04:43:49;;;;;;;3.60;2.60;;;;;;;15.91;77.70;96723.44;4878968;29;20044;-80
2022/07/06 04:46:17;;;;;;;5.60;2.70;;;;;;;15.95;77.96;96731.78;4878892;29;20060;-81
2022/07/06 04:48:43;;;;;;;2.92;2.20;;;;;;;16.20;78.03;96729.84;4879877;29;20045;-81
2022/07/06 04:51:10;;;;;;;6.38;2.72;;;;;;;16.25;77.48;96726.84;4878318;29;20049;-80
2022/07/06 04:53:37;;;;;;;7.32;2.45;;;;;;;16.38;76.81;96725.69;4879862;29;20045;-80
2022/07/06 04:56:04;;;;;;;3.85;2.30;;;;;;;16.50;76.61;96724.06;4893773;29;20056;-81
2022/07/06 04:58:31;;;;;;;3.03;2.00;;;;;;;16.56;76.40;96730.94;4900011;29;20060;-81
2022/07/06 05:00:57;;;;;;;5.90;2.40;;;;;;;16.49;76.50;96730.69;4898428;29;20140;-80
2022/07/06 05:03:25;;;;;;;3.80;2.45;;;;;;;16.56;76.20;96722.69;4897594;29;20056;-80
2022/07/06 05:05:51;;;;;;;4.95;2.28;;;;;;;16.64;76.32;96724.47;4898438;29;20055;-81
2022/07/06 05:08:18;;;;;;;3.63;2.35;;;;;;;16.65;75.15;96728.81;4897391;29;20052;-80
2022/07/06 05:10:44;;;;;;;5.47;2.45;;;;;;;16.69;75.90;96725.03;4898058;29;20053;-80
2022/07/06 05:13:11;;;;;;;6.05;2.20;;;;;;;16.74;75.50;96728.72;4897479;29;20044;-82
2022/07/06 05:15:37;;;;;;;8.65;2.38;;;;;;;16.80;73.82;96725.38;4898217;29;20051;-81
2022/07/06 05:18:04;;;;;;;3.25;2.30;;;;;;;16.72;73.79;96734.56;4897205;29;20060;-80
2022/07/06 05:20:32;;;;;;;6.75;2.55;;;;;;;16.71;73.36;96732.97;4898518;29;20067;-80
2022/07/06 05:22:58;;;;;;;5.80;2.58;;;;;;;16.89;73.30;96731.53;4899334;29;20056;-81
2022/07/06 05:25:25;;;;;;;3.47;2.00;;;;;;;16.85;72.94;96732.56;4902164;29;20048;-80
2022/07/06 05:27:51;;;;;;;4.05;2.00;;;;;;;16.94;73.28;96742.28;4903838;29;20044;-80
2022/07/06 05:30:18;;;;;;;3.85;1.95;;;;;;;17.03;73.40;96733.91;4901080;29;20063;-80
2022/07/06 05:32:44;;;;;;;2.30;1.70;;;;;;;17.08;72.77;96735.59;4901918;29;20053;-80
2022/07/06 05:35:11;;;;;;;3.03;1.80;;;;;;;17.03;73.25;96733.09;4900554;29;20079;-81
2022/07/06 05:37:39;;;;;;;3.10;2.20;;;;;;;17.00;73.21;96740.09;4901193;29;20064;-80
2022/07/06 05:40:06;;;;;;;5.50;2.30;;;;;;;17.05;75.37;96739.03;4901154;29;20052;-80
2022/07/06 05:42:32;;;;;;;4.30;1.85;;;;;;;17.19;75.01;96747.69;4902514;29;20052;-79
2022/07/06 05:44:59;;;;;;;4.10;1.70;;;;;;;17.23;73.16;96743.09;4900858;29;20044;-79
2022/07/06 05:50:12;;;;;;;2.25;1.67;;;;;;;17.41;71.29;96755.38;4902602;29;20136;-81
2022/07/06 05:52:41;;;;;;;5.82;1.95;;;;;;;17.39;73.08;96756.88;4902303;29;20076;-80
2022/07/06 05:55:09;;;;;;;3.05;2.47;;;;;;;17.54;71.50;96760.81;4901835;29;20108;-80
2022/07/06 05:57:35;;;;;;;4.63;1.90;;;;;;;17.55;71.76;96759.66;4901531;29;20052;-80
2022/07/06 06:00:02;;;;;;;3.58;2.13;;;;;;;17.51;72.38;96767.03;4890717;29;20048;-78
2022/07/06 06:02:37;;;;;;;6.47;2.15;;;;;;;17.52;71.10;96765.88;4900017;29;20044;-79
2022/07/06 06:05:04;;;;;;;4.22;2.30;;;;;;;17.51;72.73;96770.59;4898415;29;20056;-79
2022/07/06 06:07:30;;;;;;;6.25;2.53;;;;;;;17.32;73.52;96770.44;4899274;29;20056;-80
2022/07/06 06:09:58;;;;;;;3.38;2.20;;;;;;;17.18;72.09;96774.41;4898321;29;20067;-79
2022/07/06 06:12:24;;;;;;;3.20;2.28;;;;;;;17.24;71.94;96774.97;4897745;29;20049;-80
2022/07/06 06:14:51;;;;;;;4.55;2.30;;;;;;;17.43;71.10;96774.28;4899440;29;20048;-80
2022/07/06 06:17:17;;;;;;;3.60;2.20;;;;;;;17.45;72.16;96774.75;4899232;29;20052;-80
2022/07/06 06:19:43;;;;;;;7.10;2.40;;;;;;;17.20;71.35;96771.31;4898834;29;20515;-79
2022/07/06 06:22:10;;;;;;;4.57;2.30;;;;;;;16.95;70.74;96776.91;4898707;29;20064;-80
2022/07/06 06:24:36;;;;;;;3.80;2.38;;;;;;;16.98;70.86;96782.88;4898193;29;20044;-80
2022/07/06 06:27:04;;;;;;;2.83;2.25;;;;;;;17.05;71.56;96780.31;4898027;29;20044;-81
2022/07/06 06:29:31;;;;;;;4.18;2.55;;;;;;;17.21;72.31;96778.41;4898247;29;20052;-79
2022/07/06 06:31:57;;;;;;;4.10;2.60;;;;;;;17.13;70.79;96779.38;4898813;29;20060;-79
2022/07/06 06:34:24;;;;;;;2.58;2.38;;;;;;;17.32;69.62;96778.69;4897131;29;20402;-79
2022/07/06 06:36:50;;;;;;;14.93;3.00;;;;;;;17.31;69.47;96772.41;4896371;29;20044;-79
2022/07/06 06:39:16;;;;;;;3.45;2.20;;;;;;;17.34;69.67;96777.22;4878019;29;20057;-79
2022/07/06 06:41:43;;;;;;;7.00;2.47;;;;;;;17.35;68.96;96778.81;4878340;29;20052;-79
2022/07/06 06:44:11;;;;;;;3.35;2.10;;;;;;;17.56;65.01;96783.28;4878296;29;20045;-79
2022/07/06 06:46:38;;;;;;;5.43;2.30;;;;;;;17.51;66.53;96772.53;4878226;29;20056;-78
2022/07/06 06:49:05;;;;;;;7.68;2.45;;;;;;;17.57;64.81;96784.88;4877921;29;20053;-79
2022/07/06 06:51:32;;;;;;;4.25;2.40;;;;;;;17.60;66.69;96779.50;4878114;29;20477;-79
2022/07/06 06:53:58;;;;;;;5.07;2.17;;;;;;;17.68;65.43;96775.75;4878024;29;20052;-79
2022/07/06 06:56:24;;;;;;;4.05;2.30;;;;;;;17.81;64.65;96779.28;4877363;29;20064;-78
2022/07/06 06:58:51;;;;;;;6.38;2.20;;;;;;;17.98;63.68;96773.41;4878431;29;20053;-79
2022/07/06 07:01:19;;;;;;;4.38;2.35;;;;;;;18.10;65.25;96768.94;4877562;29;20048;-79
2022/07/06 07:03:45;;;;;;;5.95;2.60;;;;;;;18.08;65.82;96774.03;4877862;29;20048;-79
2022/07/06 07:06:12;;;;;;;3.17;2.08;;;;;;;18.02;63.76;96772.69;4877702;29;20090;-79
2022/07/06 07:08:38;;;;;;;5.25;2.28;;;;;;;18.26;63.77;96772.50;4877697;29;20421;-78
2022/07/06 07:11:04;;;;;;;3.55;2.25;;;;;;;18.41;64.06;96776.38;4877289;29;20053;-79
2022/07/06 07:13:31;;;;;;;3.90;2.45;;;;;;;18.58;62.83;96775.19;4877018;29;20052;-81
2022/07/06 07:15:57;;;;;;;4.75;2.30;;;;;;;18.73;62.92;96774.38;4883838;29;20051;-79
2022/07/06 07:18:25;;;;;;;3.08;1.83;;;;;;;18.69;63.55;96779.84;4878980;29;20163;-79
2022/07/06 07:20:52;;;;;;;4.10;2.20;;;;;;;18.88;63.68;96770.78;4877962;29;20096;-78
2022/07/06 07:23:18;;;;;;;3.88;2.35;;;;;;;18.94;61.46;96774.84;4877323;29;20064;-79
2022/07/06 07:25:45;;;;;;;8.15;2.60;;;;;;;18.90;62.15;96779.50;4887318;29;20049;-81
2022/07/06 07:28:11;;;;;;;4.55;2.38;;;;;;;18.86;63.78;96778.63;4884879;29;20533;-80
2022/07/06 07:30:38;;;;;;;5.32;2.40;;;;;;;19.10;63.06;96777.53;4892165;29;20052;-83
2022/07/06 07:33:05;;;;;;;4.80;2.28;;;;;;;19.20;59.81;96776.94;4891051;29;20052;-81
2022/07/06 07:41:22;;;;;;;4.63;2.50;;;;;;;19.23;61.08;96780.97;4978665;23;20061;-84
2022/07/06 07:43:49;;;;;;;4.65;2.55;;;;;;;19.33;59.69;96774.84;5112792;23;20112;-82
2022/07/06 07:46:18;;;;;;;3.88;2.50;;;;;;;19.54;61.04;96780.78;4893322;29;20053;-81
2022/07/06 07:48:44;;;;;;;8.88;2.75;;;;;;;19.54;60.05;96783.56;4894537;29;20104;-81
2022/07/06 07:51:11;;;;;;;4.38;2.70;;;;;;;19.50;58.20;96784.63;4879204;29;20045;-78
2022/07/06 07:53:37;;;;;;;3.55;2.40;;;;;;;19.66;59.34;96787.34;4876977;29;20053;-78
2022/07/06 07:56:04;;;;;;;4.60;2.65;;;;;;;19.84;59.21;96777.41;4876827;29;20049;-77
2022/07/06 07:58:32;;;;;;;8.57;2.60;;;;;;;19.97;59.45;96786.31;4876889;29;20051;-79
2022/07/06 08:00:59;;;;;;;4.90;2.70;;;;;;;20.13;59.31;96783.44;4879075;29;20049;-78
2022/07/06 08:03:25;;;;;;;7.70;2.80;;;;;;;20.12;57.28;96788.16;4876618;29;20056;-79
2022/07/06 08:05:51;;;;;;;5.70;2.70;;;;;;;20.25;58.23;96786.78;4877275;29;20053;-79
2022/07/06 08:08:18;;;;;;;6.30;3.03;;;;;;;20.39;63.65;96786.22;4878227;29;20052;-78
2022/07/06 08:10:45;;;;;;;3.90;2.50;;;;;;;20.51;58.80;96783.25;4878567;29;20049;-79
2022/07/06 08:13:11;;;;;;;7.85;2.60;;;;;;;20.55;56.48;96786.88;4879402;29;20063;-81
2022/07/06 08:15:39;;;;;;;5.18;2.60;;;;;;;20.89;55.80;96781.47;4878684;29;20045;-80
2022/07/06 08:18:05;;;;;;;4.75;2.10;;;;;;;20.96;55.18;96781.53;4876318;29;20056;-78
2022/07/06 08:20:32;;;;;;;6.68;2.60;;;;;;;21.18;57.08;96784.59;4877098;29;20045;-78
2022/07/06 08:22:58;;;;;;;7.85;3.08;;;;;;;21.50;54.50;96791.31;4876322;29;20071;-77
2022/07/06 08:25:25;;;;;;;5.00;2.30;;;;;;;21.97;54.07;96784.28;4875887;29;20417;-78
2022/07/06 08:27:51;;;;;;;3.75;2.30;;;;;;;22.27;54.75;96783.41;4876406;29;20056;-77
2022/07/06 08:30:18;;;;;;;3.78;2.30;;;;;;;22.26;49.26;96784.59;4876212;29;20052;-78
2022/07/06 08:32:46;;;;;;;4.50;2.25;;;;;;;22.63;49.34;96784.47;4875993;29;20053;-77
2022/07/06 08:35:13;;;;;;;4.80;2.10;;;;;;;22.66;48.70;96784.50;4883868;29;20056;-83
2022/07/06 08:37:39;;;;;;;10.50;2.65;;;;;;;22.53;54.38;96783.19;4888329;29;20060;-85
2022/07/06 08:40:07;;;;;;;3.30;2.13;;;;;;;22.66;50.69;96789.25;4892221;29;20048;-85
2022/07/06 08:42:35;;;;;;;5.65;2.50;;;;;;;22.61;51.45;96784.84;4887724;29;20049;-81
2022/07/06 08:45:03;;;;;;;7.07;2.70;;;;;;;22.97;56.95;96785.13;4880068;29;20052;-78
2022/07/06 08:47:31;;;;;;;7.82;2.55;;;;;;;23.03;49.09;96783.56;4880351;29;20551;-84
2022/07/06 08:49:59;;;;;;;4.90;2.40;;;;;;;22.81;51.26;96781.78;4877590;29;20048;-76
2022/07/06 08:52:25;;;;;;;5.43;2.40;;;;;;;22.90;51.79;96785.06;4876538;29;20052;-80
2022/07/06 08:54:52;;;;;;;3.38;2.17;;;;;;;22.72;50.33;96795.25;4872527;29;20046;-79
2022/07/06 08:57:19;;;;;;;5.82;2.65;;;;;;;22.91;53.01;96797.75;4857508;29;20050;-77
2022/07/06 08:59:46;;;;;;;3.92;2.20;;;;;;;23.21;52.19;96782.84;4860927;29;20060;-78
2022/07/06 09:02:14;;;;;;;5.20;2.08;;;;;;;23.31;47.10;96793.19;4861227;29;20060;-79
2022/07/06 09:04:44;;;;;;;4.07;2.30;;;;;;;23.40;47.84;96785.31;4864186;29;20572;-76
2022/07/06 09:07:13;;;;;;;5.40;2.50;;;;;;;23.41;48.88;96795.22;4862811;29;20049;-80
2022/07/06 09:09:40;;;;;;;3.30;2.30;;;;;;;23.73;50.05;96789.00;4862789;29;20053;-79
2022/07/06 09:12:12;;;;;;;5.45;2.75;;;;;;;23.81;54.48;96793.41;4862359;29;20067;-80
2022/07/06 09:14:39;;;;;;;6.63;2.40;;;;;;;23.81;49.55;96798.97;4862092;29;20069;-80
2022/07/06 09:17:07;;;;;;;3.95;2.65;;;;;;;23.72;45.16;96796.53;4864513;29;20061;-79
2022/07/06 09:19:35;;;;;;;5.70;2.80;;;;;;;23.97;49.33;96798.59;4867353;29;20053;-82
2022/07/06 09:22:02;;;;;;;8.32;2.47;;;;;;;23.81;47.66;96798.97;4865978;29;20053;-79
2022/07/06 09:24:31;;;;;;;5.05;2.28;;;;;;;24.13;47.15;96807.34;4861504;29;20057;-77
2022/07/06 09:26:59;;;;;;;5.85;2.72;;;;;;;23.90;49.05;96799.34;4861488;29;20111;-79
2022/07/06 09:29:29;;;;;;;5.32;3.03;;;;;;;23.91;48.36;96798.19;4860458;29;20049;-78
2022/07/06 09:32:00;;;;;;;4.30;2.10;;;;;;;23.92;45.87;96795.00;4867777;29;20050;-83
2022/07/06 09:34:40;;;;;;;5.57;2.47;;;;;;;23.91;44.43;96812.09;4874878;29;20164;-85
2022/07/06 09:39:44;;;;;;;3.75;2.17;;;;;;;23.89;47.00;96795.00;5176159;23;20528;-79
2022/07/06 09:42:11;;;;;;;4.55;2.25;;;;;;;23.95;48.15;96804.53;4918912;29;20088;-81
2022/07/06 09:44:40;;;;;;;7.75;2.70;;;;;;;23.87;45.24;96797.38;4922817;29;20048;-81
2022/07/06 09:47:08;;;;;;;7.15;2.20;;;;;;;24.11;45.61;96801.38;4919934;29;20059;-79
2022/07/06 09:49:35;;;;;;;5.43;2.70;;;;;;;24.17;45.71;96803.41;4917462;29;20092;-79
2022/07/06 09:52:03;;;;;;;5.85;2.30;;;;;;;23.84;42.13;96803.72;4919570;29;20048;-80
2022/07/06 09:54:30;;;;;;;4.40;2.05;;;;;;;23.98;46.00;96800.19;4923279;29;20048;-83
2022/07/06 09:56:58;;;;;;;3.28;1.95;;;;;;;24.02;46.66;96799.00;4910330;29;20410;-81
2022/07/06 09:59:26;;;;;;;6.47;2.53;;;;;;;24.04;43.39;96793.81;4905952;29;20071;-77
2022/07/06 10:01:56;;;;;;;3.45;2.38;;;;;;;24.17;45.77;96791.44;4899616;29;20072;-76
2022/07/06 10:04:24;;;;;;;6.32;2.50;;;;;;;24.06;46.36;96793.41;4897135;29;20044;-76
2022/07/06 10:06:51;;;;;;;5.20;2.40;;;;;;;24.03;45.04;96792.25;4897442;29;20071;-75
2022/07/06 10:09:20;;;;;;;5.63;2.50;;;;;;;24.26;46.20;96791.84;4896627;29;20049;-76
2022/07/06 10:11:50;;;;;;;8.43;2.97;;;;;;;24.43;45.94;96790.28;4897115;29;20055;-77
2022/07/06 10:14:22;;;;;;;3.72;2.45;;;;;;;24.46;43.06;96795.84;4897130;29;20052;-76
2022/07/06 10:16:49;;;;;;;3.58;2.08;;;;;;;24.39;40.15;96795.06;4897695;29;20127;-77
2022/07/06 10:19:18;;;;;;;7.07;2.20;;;;;;;24.10;45.76;96788.66;4896958;29;20071;-78
2022/07/06 10:21:45;;;;;;;7.50;2.20;;;;;;;24.18;43.51;96785.50;4897226;29;20059;-77
2022/07/06 10:24:13;;;;;;;5.65;1.80;;;;;;;24.18;42.44;96790.28;4896918;29;20052;-77
2022/07/06 10:26:40;;;;;;;4.28;2.35;;;;;;;24.07;43.04;96793.03;4897478;29;20072;-76
2022/07/06 10:29:07;;;;;;;2.95;1.98;;;;;;;24.17;42.32;96789.47;4896998;29;20427;-76
2022/07/06 10:31:38;;;;;;;5.78;2.00;;;;;;;24.34;46.21;96789.88;4897224;29;20069;-77
2022/07/06 10:34:07;;;;;;;3.90;2.40;;;;;;;24.28;45.42;96789.47;4896542;29;20056;-77
2022/07/06 10:36:38;;;;;;;3.42;1.90;;;;;;;24.37;41.65;96791.88;4897086;29;20438;-78
2022/07/06 10:41:02;;;;;;;4.90;2.03;;;;;;;24.43;47.07;96790.28;4896516;29;20079;-77
2022/07/06 10:41:50;;;;;;;4.35;2.50;;;;;;;24.41;42.27;96789.91;4897279;29;20049;-78
2022/07/06 10:44:19;;;;;;;4.10;1.98;;;;;;;24.59;42.17;96787.09;4896669;29;20476;-77
2022/07/06 10:46:54;;;;;;;6.53;2.17;;;;;;;24.57;41.34;96789.50;4897003;29;20048;-78
2022/07/06 10:49:22;;;;;;;4.18;1.65;;;;;;;24.61;40.21;96795.84;4896379;29;20087;-79
2022/07/06 10:51:50;;;;;;;6.40;2.15;;;;;;;24.24;42.10;96785.09;4896856;29;20064;-77
2022/07/06 10:54:18;;;;;;;5.35;2.40;;;;;;;23.86;42.57;96773.53;4896387;29;20101;-77
2022/07/06 10:56:46;;;;;;;2.88;2.13;;;;;;;24.11;43.43;96779.91;4915270;29;20040;-79
2022/07/06 10:59:13;;;;;;;3.92;1.98;;;;;;;24.47;40.03;96769.59;4915195;29;20052;-78
2022/07/06 11:01:39;;;;;;;4.32;1.73;;;;;;;24.40;43.09;96779.97;4915754;29;20048;-78
2022/07/06 11:04:09;;;;;;;4.05;1.95;;;;;;;24.26;44.79;96780.72;4915267;29;20048;-80
2022/07/06 11:06:37;;;;;;;3.63;2.08;;;;;;;23.91;41.20;96787.06;4919550;29;20052;-81
2022/07/06 11:09:05;;;;;;;4.28;1.95;;;;;;;23.90;40.86;96779.88;4916486;29;20055;-79
2022/07/06 11:11:49;;;;;;;4.60;2.10;;;;;;;24.12;44.97;96775.97;4919793;29;20044;-78
2022/07/06 11:14:17;;;;;;;3.85;1.90;;;;;;;24.14;43.89;96781.91;4917416;29;20075;-78
2022/07/06 11:17:02;;;;;;;9.38;2.28;;;;;;;24.39;43.41;96783.94;4917042;29;20055;-80
2022/07/06 11:19:31;;;;;;;4.40;2.10;;;;;;;24.55;43.75;96781.53;4918837;29;20496;-78
2022/07/06 11:21:59;;;;;;;5.25;2.00;;;;;;;24.09;41.61;96782.31;4915379;29;20075;-78
2022/07/06 11:24:27;;;;;;;3.50;1.95;;;;;;;24.15;42.70;96780.72;4917154;29;20067;-82
2022/07/06 11:26:55;;;;;;;3.65;1.70;;;;;;;24.15;42.27;96780.72;4919117;29;20443;-79
2022/07/06 11:29:23;;;;;;;4.70;1.95;;;;;;;24.45;39.94;96771.22;4918389;29;20063;-79
2022/07/06 11:31:52;;;;;;;3.15;1.65;;;;;;;24.45;41.06;96772.00;4919966;29;20052;-80
2022/07/06 11:34:19;;;;;;;6.90;1.83;;;;;;;24.39;38.30;96767.25;4918268;29;20048;-80
2022/07/06 11:36:50;;;;;;;4.28;1.90;;;;;;;24.09;44.39;96765.63;4918655;29;20044;-81
2022/07/06 11:39:16;;;;;;;2.75;2.00;;;;;;;24.17;46.89;96763.63;4889433;29;20082;-81
2022/07/06 11:41:43;;;;;;;5.82;1.90;;;;;;;24.13;41.89;96771.97;4922980;29;20044;-79
2022/07/06 11:44:09;;;;;;;3.85;1.58;;;;;;;24.08;40.97;96775.16;4900280;29;20048;-78
2022/07/06 11:46:37;;;;;;;2.60;2.00;;;;;;;24.14;43.34;96768.00;4914403;29;20497;-79